Terminal Aerodrome Forecast
Issued by NWS Sterling, VA

Home | Current Version | Previous Version | Text Only | Print | Product List | Glossary On
Versions: 1 2 3 4 5 6 7 8 9 10 11 12 13 14 15 16 17 18 19 20 21 22 23 24 25 26 27
569
FTUS41 KLWX 271720
TAFCHO
TAF
KCHO 271720Z 2718/2818 13004KT P6SM BKN020
     FM272000 14005KT P6SM SCT020 SCT200
     FM280100 00000KT P6SM BKN090
     FM280300 VRB03KT P6SM BKN015
     FM280600 00000KT 3SM BR VCSH BKN008=

USA.gov is the U.S. government's official web portal to all federal, state and local government web resources and services.